JBU71 KCLT-KDCA
Flight info
| Callsign | JBU71 |
|---|---|
| Flight time | N/A |
| Altitude | 35000 |
| Route | KILNS5 AUDII WAVES CAPSS4 |
| Aircraft | A320/M-SDE3FGHIRWY/LB1 |
Departure
| Time | 2026-05-06 22:59 |
|---|---|
| Airport | Charlotte Douglas International Airport (KCLT) |
Arrival
| Time | N/A |
|---|---|
| Airport | Ronald Reagan Washington National Airport (KDCA) |
| Time | Latitude | Longitude | Altitude | Speed | Heading |
|---|---|---|---|---|---|
| 2026-05-06 22:40 | 35.21978 | -80.94797 | 732 ft | 0 kts | 360° |
| 2026-05-06 22:47 | 35.21977 | -80.94797 | 732 ft | 2 kts | 360° |
| 2026-05-06 22:48 | 35.21953 | -80.94797 | 732 ft | 4 kts | 360° |
| 2026-05-06 22:48 | 35.21930 | -80.94796 | 732 ft | 4 kts | 341° |
| 2026-05-06 22:48 | 35.21911 | -80.94778 | 731 ft | 4 kts | 288° |
| 2026-05-06 22:48 | 35.21908 | -80.94748 | 732 ft | 3 kts | 266° |
| 2026-05-06 22:49 | 35.21909 | -80.94728 | 732 ft | 0 kts | 266° |
| 2026-05-06 22:54 | 35.21908 | -80.94742 | 732 ft | 3 kts | 266° |
| 2026-05-06 22:54 | 35.21906 | -80.94781 | 732 ft | 6 kts | 266° |
| 2026-05-06 22:55 | 35.21903 | -80.94846 | 733 ft | 9 kts | 266° |
| 2026-05-06 22:55 | 35.21886 | -80.94932 | 732 ft | 12 kts | 243° |
| 2026-05-06 22:55 | 35.21875 | -80.95027 | 734 ft | 13 kts | 301° |
| 2026-05-06 22:55 | 35.21963 | -80.95052 | 734 ft | 15 kts | 3° |
| 2026-05-06 22:56 | 35.22074 | -80.95059 | 734 ft | 17 kts | 354° |
| 2026-05-06 22:56 | 35.22201 | -80.95076 | 734 ft | 20 kts | 352° |
| 2026-05-06 22:56 | 35.22346 | -80.95086 | 734 ft | 20 kts | 356° |
| 2026-05-06 22:56 | 35.22425 | -80.95093 | 734 ft | 8 kts | 355° |
| 2026-05-06 22:57 | 35.22491 | -80.95098 | 734 ft | 11 kts | 356° |
| 2026-05-06 22:57 | 35.22574 | -80.95105 | 734 ft | 13 kts | 356° |
| 2026-05-06 22:57 | 35.22668 | -80.95112 | 732 ft | 10 kts | 357° |
| 2026-05-06 22:57 | 35.22731 | -80.95151 | 734 ft | 11 kts | 297° |
| 2026-05-06 22:58 | 35.22729 | -80.95244 | 738 ft | 10 kts | 263° |
| 2026-05-06 22:58 | 35.22709 | -80.95314 | 739 ft | 9 kts | 213° |
| 2026-05-06 22:58 | 35.22638 | -80.95306 | 741 ft | 13 kts | 172° |
| 2026-05-06 22:58 | 35.22431 | -80.95294 | 741 ft | 61 kts | 175° |
| 2026-05-06 22:59 | 35.21778 | -80.95238 | 742 ft | 124 kts | 176° |
| 2026-05-06 22:59 | 35.20750 | -80.95172 | 780 ft | 168 kts | 178° |
| 2026-05-06 22:59 | 35.19583 | -80.94985 | 1369 ft | 171 kts | 175° |
| 2026-05-06 22:59 | 35.18387 | -80.94828 | 2078 ft | 174 kts | 179° |
| 2026-05-06 23:00 | 35.17124 | -80.94699 | 2500 ft | 192 kts | 180° |
| 2026-05-06 23:00 | 35.15751 | -80.94362 | 2878 ft | 220 kts | 160° |
| 2026-05-06 23:00 | 35.14491 | -80.93093 | 3395 ft | 248 kts | 137° |
| 2026-05-06 23:00 | 35.13353 | -80.91368 | 3991 ft | 271 kts | 133° |
| 2026-05-06 23:01 | 35.12183 | -80.89514 | 4874 ft | 280 kts | 131° |
| 2026-05-06 23:01 | 35.11298 | -80.87332 | 5731 ft | 297 kts | 107° |
| 2026-05-06 23:01 | 35.11256 | -80.84772 | 6568 ft | 310 kts | 76° |
| 2026-05-06 23:01 | 35.12091 | -80.82340 | 7393 ft | 313 kts | 60° |
| 2026-05-06 23:02 | 35.13101 | -80.79963 | 8275 ft | 318 kts | 60° |
| 2026-05-06 23:02 | 35.14113 | -80.77583 | 9144 ft | 322 kts | 60° |
| 2026-05-06 23:02 | 35.15148 | -80.75130 | 9978 ft | 327 kts | 61° |
| 2026-05-06 23:02 | 35.16213 | -80.72586 | 10403 ft | 348 kts | 61° |
| 2026-05-06 23:03 | 35.17346 | -80.69872 | 10772 ft | 366 kts | 60° |
| 2026-05-06 23:03 | 35.18514 | -80.67061 | 11401 ft | 374 kts | 61° |
| 2026-05-06 23:03 | 35.19698 | -80.64200 | 12114 ft | 380 kts | 60° |
| 2026-05-06 23:03 | 35.20898 | -80.61294 | 12820 ft | 385 kts | 60° |
| 2026-05-06 23:04 | 35.22113 | -80.58350 | 13560 ft | 390 kts | 60° |
| 2026-05-06 23:04 | 35.23342 | -80.55365 | 14217 ft | 395 kts | 60° |
| 2026-05-06 23:04 | 35.24564 | -80.52394 | 14849 ft | 399 kts | 60° |
| 2026-05-06 23:04 | 35.25819 | -80.49344 | 15498 ft | 403 kts | 59° |
| 2026-05-06 23:05 | 35.27087 | -80.46261 | 15895 ft | 406 kts | 59° |
| 2026-05-06 23:05 | 35.28359 | -80.43175 | 16011 ft | 407 kts | 59° |
| 2026-05-06 23:05 | 35.29641 | -80.40067 | 16432 ft | 410 kts | 59° |
| 2026-05-06 23:05 | 35.30928 | -80.36941 | 17125 ft | 413 kts | 59° |
| 2026-05-06 23:06 | 35.32224 | -80.33790 | 17790 ft | 416 kts | 58° |
| 2026-05-06 23:06 | 35.33532 | -80.30605 | 18441 ft | 420 kts | 58° |
| 2026-05-06 23:06 | 35.34834 | -80.27433 | 19010 ft | 424 kts | 58° |
| 2026-05-06 23:06 | 35.36161 | -80.24189 | 19602 ft | 428 kts | 58° |
| 2026-05-06 23:07 | 35.37500 | -80.20910 | 20203 ft | 432 kts | 59° |
| 2026-05-06 23:07 | 35.38845 | -80.17614 | 20807 ft | 435 kts | 59° |
| 2026-05-06 23:07 | 35.40204 | -80.14283 | 21378 ft | 439 kts | 59° |
| 2026-05-06 23:07 | 35.41579 | -80.10919 | 21948 ft | 443 kts | 59° |
| 2026-05-06 23:08 | 35.42959 | -80.07535 | 22517 ft | 446 kts | 59° |
| 2026-05-06 23:08 | 35.44348 | -80.04116 | 23085 ft | 450 kts | 59° |
| 2026-05-06 23:08 | 35.45747 | -80.00673 | 23621 ft | 454 kts | 59° |
| 2026-05-06 23:08 | 35.47161 | -79.97189 | 24062 ft | 457 kts | 59° |
| 2026-05-06 23:09 | 35.48562 | -79.93732 | 24503 ft | 460 kts | 59° |
| 2026-05-06 23:09 | 35.49992 | -79.90195 | 24950 ft | 464 kts | 59° |
| 2026-05-06 23:09 | 35.51430 | -79.86638 | 25386 ft | 467 kts | 59° |
| 2026-05-06 23:09 | 35.52877 | -79.83053 | 25815 ft | 471 kts | 60° |
| 2026-05-06 23:10 | 35.54146 | -79.79325 | 26228 ft | 477 kts | 65° |
| 2026-05-06 23:10 | 35.55347 | -79.75513 | 26645 ft | 480 kts | 66° |
| 2026-05-06 23:10 | 35.56541 | -79.71678 | 26917 ft | 482 kts | 66° |
| 2026-05-06 23:10 | 35.57735 | -79.67821 | 26970 ft | 483 kts | 66° |
| 2026-05-06 23:11 | 35.58934 | -79.63944 | 27354 ft | 486 kts | 66° |
| 2026-05-06 23:11 | 35.60125 | -79.60104 | 27769 ft | 489 kts | 66° |
| 2026-05-06 23:11 | 35.61342 | -79.56189 | 28178 ft | 492 kts | 66° |
| 2026-05-06 23:11 | 35.62568 | -79.52251 | 28580 ft | 495 kts | 66° |
| 2026-05-06 23:12 | 35.63802 | -79.48290 | 28972 ft | 498 kts | 66° |
| 2026-05-06 23:12 | 35.65042 | -79.44300 | 29384 ft | 501 kts | 66° |
| 2026-05-06 23:12 | 35.66284 | -79.40285 | 29762 ft | 504 kts | 66° |
| 2026-05-06 23:12 | 35.67529 | -79.36250 | 30130 ft | 507 kts | 66° |
| 2026-05-06 23:13 | 35.68809 | -79.32195 | 30453 ft | 508 kts | 63° |
| 2026-05-06 23:13 | 35.70542 | -79.28434 | 30742 ft | 504 kts | 49° |
| 2026-05-06 23:13 | 35.72792 | -79.25156 | 30932 ft | 500 kts | 39° |
| 2026-05-06 23:13 | 35.75348 | -79.22368 | 30971 ft | 480 kts | 31° |
| 2026-05-06 23:14 | 35.77954 | -79.19997 | 30974 ft | 468 kts | 29° |
| 2026-05-06 23:14 | 35.83149 | -79.15225 | 30967 ft | 465 kts | 30° |
| 2026-05-06 23:15 | 35.88320 | -79.10439 | 30965 ft | 465 kts | 30° |
| 2026-05-06 23:15 | 35.93503 | -79.05670 | 30965 ft | 465 kts | 29° |
| 2026-05-06 23:16 | 35.98688 | -79.00902 | 30964 ft | 465 kts | 29° |
| 2026-05-06 23:16 | 36.03840 | -78.96162 | 30970 ft | 465 kts | 29° |
| 2026-05-06 23:17 | 36.09033 | -78.91367 | 30994 ft | 466 kts | 29° |
| 2026-05-06 23:17 | 36.14217 | -78.86572 | 31001 ft | 466 kts | 29° |
| 2026-05-06 23:18 | 36.19389 | -78.81773 | 30488 ft | 463 kts | 30° |
| 2026-05-06 23:18 | 36.21964 | -78.79371 | 29857 ft | 464 kts | 30° |
| 2026-05-06 23:18 | 36.24497 | -78.76965 | 29209 ft | 464 kts | 31° |
| 2026-05-06 23:18 | 36.27076 | -78.74479 | 28959 ft | 465 kts | 31° |
| 2026-05-06 23:19 | 36.29589 | -78.72039 | 28962 ft | 466 kts | 31° |
| 2026-05-06 23:19 | 36.34696 | -78.67078 | 28961 ft | 467 kts | 31° |
| 2026-05-06 23:20 | 36.39811 | -78.62122 | 28962 ft | 467 kts | 31° |
| 2026-05-06 23:20 | 36.44939 | -78.57163 | 28962 ft | 467 kts | 31° |
| 2026-05-06 23:21 | 36.50059 | -78.52204 | 28961 ft | 467 kts | 31° |
| 2026-05-06 23:21 | 36.55155 | -78.47257 | 28956 ft | 467 kts | 31° |
| 2026-05-06 23:22 | 36.60279 | -78.42280 | 28950 ft | 468 kts | 31° |
| 2026-05-06 23:22 | 36.65408 | -78.37279 | 28954 ft | 468 kts | 31° |
| 2026-05-06 23:23 | 36.70535 | -78.32263 | 28957 ft | 469 kts | 31° |
| 2026-05-06 23:23 | 36.75671 | -78.27232 | 28954 ft | 470 kts | 31° |
| 2026-05-06 23:24 | 36.80780 | -78.22227 | 28976 ft | 470 kts | 31° |
| 2026-05-06 23:24 | 36.85919 | -78.17196 | 28970 ft | 471 kts | 31° |
| 2026-05-06 23:25 | 36.91068 | -78.12131 | 28922 ft | 471 kts | 31° |
| 2026-05-06 23:25 | 36.96219 | -78.07061 | 28927 ft | 471 kts | 31° |
| 2026-05-06 23:26 | 37.01374 | -78.01978 | 28928 ft | 472 kts | 31° |
| 2026-05-06 23:26 | 37.06488 | -77.96916 | 28926 ft | 472 kts | 31° |
| 2026-05-06 23:27 | 37.11648 | -77.91811 | 28922 ft | 472 kts | 31° |
| 2026-05-06 23:27 | 37.14199 | -77.89278 | 28671 ft | 463 kts | 31° |
| 2026-05-06 23:27 | 37.16695 | -77.86790 | 28406 ft | 454 kts | 31° |
| 2026-05-06 23:27 | 37.19149 | -77.84339 | 28156 ft | 448 kts | 30° |
| 2026-05-06 23:28 | 37.21576 | -77.81925 | 27902 ft | 444 kts | 30° |
| 2026-05-06 23:28 | 37.23990 | -77.79531 | 27653 ft | 442 kts | 30° |
| 2026-05-06 23:28 | 37.26397 | -77.77144 | 27402 ft | 439 kts | 30° |
| 2026-05-06 23:28 | 37.28790 | -77.74766 | 27145 ft | 438 kts | 30° |
| 2026-05-06 23:29 | 37.31134 | -77.72430 | 26903 ft | 436 kts | 30° |
| 2026-05-06 23:29 | 37.33504 | -77.70063 | 26656 ft | 434 kts | 30° |
| 2026-05-06 23:29 | 37.35852 | -77.67714 | 26412 ft | 432 kts | 30° |
| 2026-05-06 23:29 | 37.38205 | -77.65360 | 26169 ft | 430 kts | 30° |
| 2026-05-06 23:30 | 37.40527 | -77.63034 | 25845 ft | 426 kts | 30° |
| 2026-05-06 23:30 | 37.42853 | -77.60706 | 25367 ft | 427 kts | 30° |
| 2026-05-06 23:30 | 37.45165 | -77.58393 | 24909 ft | 428 kts | 30° |
| 2026-05-06 23:30 | 37.47511 | -77.56048 | 24415 ft | 429 kts | 30° |
| 2026-05-06 23:31 | 37.49851 | -77.53706 | 23922 ft | 430 kts | 30° |
| 2026-05-06 23:31 | 37.52166 | -77.51384 | 23404 ft | 432 kts | 30° |
| 2026-05-06 23:31 | 37.54544 | -77.48990 | 22835 ft | 432 kts | 30° |
| 2026-05-06 23:31 | 37.56866 | -77.46694 | 22427 ft | 424 kts | 26° |
| 2026-05-06 23:32 | 37.59383 | -77.44877 | 21925 ft | 408 kts | 13° |
| 2026-05-06 23:32 | 37.61988 | -77.43767 | 21785 ft | 383 kts | 3° |
| 2026-05-06 23:32 | 37.64530 | -77.42986 | 21351 ft | 371 kts | 2° |
| 2026-05-06 23:32 | 37.67022 | -77.42213 | 20632 ft | 365 kts | 3° |
| 2026-05-06 23:33 | 37.69450 | -77.41456 | 20321 ft | 357 kts | 3° |
| 2026-05-06 23:33 | 37.71871 | -77.40710 | 19991 ft | 358 kts | 3° |
| 2026-05-06 23:33 | 37.74286 | -77.39969 | 19634 ft | 357 kts | 3° |
| 2026-05-06 23:33 | 37.76693 | -77.39229 | 19285 ft | 354 kts | 3° |
| 2026-05-06 23:34 | 37.79078 | -77.38497 | 18939 ft | 351 kts | 3° |
| 2026-05-06 23:34 | 37.81443 | -77.37769 | 18598 ft | 349 kts | 4° |
| 2026-05-06 23:34 | 37.83795 | -77.37037 | 18255 ft | 347 kts | 4° |
| 2026-05-06 23:34 | 37.86104 | -77.36318 | 17911 ft | 344 kts | 4° |
| 2026-05-06 23:35 | 37.88426 | -77.35599 | 17669 ft | 344 kts | 4° |
| 2026-05-06 23:35 | 37.90750 | -77.34883 | 17339 ft | 343 kts | 4° |
| 2026-05-06 23:35 | 37.93063 | -77.34172 | 16994 ft | 341 kts | 4° |
| 2026-05-06 23:35 | 37.95367 | -77.33462 | 16654 ft | 340 kts | 4° |
| 2026-05-06 23:36 | 37.97664 | -77.32752 | 16329 ft | 339 kts | 4° |
| 2026-05-06 23:36 | 37.99952 | -77.32045 | 15984 ft | 338 kts | 5° |
| 2026-05-06 23:36 | 38.02228 | -77.31344 | 15648 ft | 336 kts | 5° |
| 2026-05-06 23:36 | 38.04462 | -77.30657 | 15321 ft | 335 kts | 5° |
| 2026-05-06 23:37 | 38.06726 | -77.29958 | 14989 ft | 334 kts | 5° |
| 2026-05-06 23:37 | 38.08987 | -77.29260 | 14656 ft | 333 kts | 6° |
| 2026-05-06 23:37 | 38.11224 | -77.28563 | 14334 ft | 332 kts | 6° |
| 2026-05-06 23:37 | 38.13320 | -77.27905 | 14025 ft | 331 kts | 6° |
| 2026-05-06 23:38 | 38.15549 | -77.27199 | 13698 ft | 329 kts | 7° |
| 2026-05-06 23:38 | 38.17767 | -77.26500 | 13343 ft | 328 kts | 7° |
| 2026-05-06 23:38 | 38.19982 | -77.25806 | 13022 ft | 327 kts | 7° |
| 2026-05-06 23:38 | 38.22185 | -77.25062 | 12753 ft | 328 kts | 9° |
| 2026-05-06 23:39 | 38.24375 | -77.24245 | 12500 ft | 328 kts | 10° |
| 2026-05-06 23:39 | 38.26525 | -77.23410 | 12251 ft | 327 kts | 11° |
| 2026-05-06 23:39 | 38.28693 | -77.22562 | 11992 ft | 326 kts | 11° |
| 2026-05-06 23:39 | 38.30868 | -77.21717 | 11735 ft | 325 kts | 11° |
| 2026-05-06 23:40 | 38.33029 | -77.20883 | 11482 ft | 325 kts | 10° |
| 2026-05-06 23:40 | 38.35194 | -77.20056 | 11231 ft | 324 kts | 10° |
| 2026-05-06 23:40 | 38.37356 | -77.19236 | 10973 ft | 323 kts | 10° |
| 2026-05-06 23:40 | 38.39512 | -77.18415 | 10886 ft | 324 kts | 11° |
| 2026-05-06 23:41 | 38.41662 | -77.17588 | 10785 ft | 324 kts | 11° |
| 2026-05-06 23:41 | 38.43822 | -77.16749 | 10687 ft | 324 kts | 11° |
| 2026-05-06 23:41 | 38.45972 | -77.15913 | 10582 ft | 323 kts | 11° |
| 2026-05-06 23:41 | 38.48124 | -77.15077 | 10480 ft | 323 kts | 11° |
| 2026-05-06 23:42 | 38.50277 | -77.14243 | 10376 ft | 323 kts | 11° |
| 2026-05-06 23:42 | 38.52252 | -77.13478 | 10286 ft | 322 kts | 11° |
| 2026-05-06 23:42 | 38.54373 | -77.12659 | 10176 ft | 322 kts | 11° |
| 2026-05-06 23:42 | 38.56512 | -77.11832 | 10045 ft | 320 kts | 11° |
| 2026-05-06 23:43 | 38.58624 | -77.11018 | 9802 ft | 315 kts | 11° |
| 2026-05-06 23:43 | 38.60696 | -77.10217 | 9496 ft | 312 kts | 11° |
| 2026-05-06 23:43 | 38.62778 | -77.09413 | 9181 ft | 309 kts | 11° |
| 2026-05-06 23:43 | 38.64825 | -77.08624 | 8874 ft | 307 kts | 11° |
| 2026-05-06 23:44 | 38.66866 | -77.07838 | 8556 ft | 304 kts | 11° |
| 2026-05-06 23:44 | 38.68892 | -77.07140 | 8249 ft | 298 kts | 3° |
| 2026-05-06 23:44 | 38.70239 | -77.06949 | 8046 ft | 293 kts | 357° |
| 2026-05-06 23:44 | 38.72259 | -77.06752 | 7753 ft | 291 kts | 358° |
| 2026-05-06 23:45 | 38.74920 | -77.06548 | 7358 ft | 284 kts | 351° |
| 2026-05-06 23:45 | 38.76823 | -77.06948 | 7111 ft | 273 kts | 336° |
| 2026-05-06 23:45 | 38.78531 | -77.07914 | 6836 ft | 264 kts | 322° |
| 2026-05-06 23:45 | 38.80059 | -77.09179 | 6560 ft | 261 kts | 321° |
| 2026-05-06 23:46 | 38.81584 | -77.10437 | 6299 ft | 260 kts | 322° |
| 2026-05-06 23:46 | 38.82589 | -77.11262 | 6123 ft | 260 kts | 321° |
| 2026-05-06 23:46 | 38.83971 | -77.12717 | 6001 ft | 256 kts | 311° |
| 2026-05-06 23:46 | 38.85245 | -77.14307 | 5839 ft | 255 kts | 311° |
| 2026-05-06 23:47 | 38.86515 | -77.15884 | 5357 ft | 253 kts | 311° |
| 2026-05-06 23:47 | 38.88191 | -77.17966 | 4535 ft | 253 kts | 312° |
| 2026-05-06 23:47 | 38.89452 | -77.19532 | 3949 ft | 251 kts | 312° |
| 2026-05-06 23:47 | 38.90689 | -77.21069 | 3518 ft | 244 kts | 312° |
| 2026-05-06 23:48 | 38.91861 | -77.22523 | 3333 ft | 227 kts | 313° |
| 2026-05-06 23:48 | 38.92606 | -77.23448 | 3083 ft | 222 kts | 313° |
| 2026-05-06 23:48 | 38.93707 | -77.24818 | 3022 ft | 223 kts | 313° |
| 2026-05-06 23:48 | 38.94906 | -77.26118 | 3018 ft | 229 kts | 329° |
| 2026-05-06 23:49 | 38.96467 | -77.26591 | 3030 ft | 237 kts | 358° |
| 2026-05-06 23:49 | 38.98091 | -77.26242 | 3023 ft | 240 kts | 19° |
| 2026-05-06 23:49 | 38.99465 | -77.25048 | 3027 ft | 246 kts | 47° |
| 2026-05-06 23:49 | 39.00255 | -77.23122 | 3018 ft | 246 kts | 77° |
| 2026-05-06 23:50 | 39.00234 | -77.20961 | 2742 ft | 241 kts | 109° |
| 2026-05-06 23:50 | 38.98247 | -77.17611 | 2698 ft | 239 kts | 138° |
| 2026-05-06 23:50 | 38.97089 | -77.16108 | 2716 ft | 230 kts | 138° |
| 2026-05-06 23:51 | 38.96016 | -77.14737 | 2646 ft | 213 kts | 141° |
| 2026-05-06 23:51 | 38.94927 | -77.13491 | 2386 ft | 207 kts | 143° |
| 2026-05-06 23:51 | 38.93860 | -77.12320 | 2115 ft | 196 kts | 144° |
| 2026-05-06 23:51 | 38.92759 | -77.11414 | 1855 ft | 181 kts | 160° |
| 2026-05-06 23:52 | 38.91658 | -77.10714 | 1627 ft | 174 kts | 153° |
| 2026-05-06 23:52 | 38.90836 | -77.09685 | 1414 ft | 158 kts | 125° |
| 2026-05-06 23:52 | 38.90460 | -77.08414 | 1205 ft | 151 kts | 108° |
| 2026-05-06 23:52 | 38.90029 | -77.07215 | 1001 ft | 146 kts | 132° |
| 2026-05-06 23:53 | 38.89376 | -77.06288 | 823 ft | 140 kts | 138° |
| 2026-05-06 23:53 | 38.88720 | -77.05386 | 654 ft | 138 kts | 136° |
| 2026-05-06 23:53 | 38.88063 | -77.04502 | 459 ft | 135 kts | 141° |
| 2026-05-06 23:53 | 38.87245 | -77.03990 | 290 ft | 130 kts | 171° |
| 2026-05-06 23:54 | 38.86356 | -77.03893 | 122 ft | 127 kts | 176° |
| 2026-05-06 23:54 | 38.85488 | -77.03815 | 32 ft | 117 kts | 172° |